sensor_id;sensor_type;location;lat;lon;timestamp;temperature;humidity
20171;DHT22;10245;51.344;6.620;2023-02-11T00:00:27;6.50;83.80
20171;DHT22;10245;51.344;6.620;2023-02-11T00:02:51;6.30;84.40
20171;DHT22;10245;51.344;6.620;2023-02-11T00:05:14;6.30;84.60
20171;DHT22;10245;51.344;6.620;2023-02-11T00:07:38;6.50;84.10
20171;DHT22;10245;51.344;6.620;2023-02-11T00:10:01;6.60;83.50
20171;DHT22;10245;51.344;6.620;2023-02-11T00:12:25;6.60;83.50
20171;DHT22;10245;51.344;6.620;2023-02-11T00:14:49;6.60;83.60
20171;DHT22;10245;51.344;6.620;2023-02-11T00:17:14;6.60;83.50
20171;DHT22;10245;51.344;6.620;2023-02-11T00:19:37;6.60;83.50
20171;DHT22;10245;51.344;6.620;2023-02-11T00:22:00;6.70;83.50
20171;DHT22;10245;51.344;6.620;2023-02-11T00:24:24;6.80;83.20
20171;DHT22;10245;51.344;6.620;2023-02-11T00:26:47;6.70;83.20
20171;DHT22;10245;51.344;6.620;2023-02-11T00:29:10;6.80;83.40
20171;DHT22;10245;51.344;6.620;2023-02-11T00:31:34;6.80;83.40
20171;DHT22;10245;51.344;6.620;2023-02-11T00:34:00;6.70;83.40
20171;DHT22;10245;51.344;6.620;2023-02-11T00:36:26;6.80;83.40
20171;DHT22;10245;51.344;6.620;2023-02-11T00:38:51;6.70;83.50
20171;DHT22;10245;51.344;6.620;2023-02-11T00:41:17;6.70;83.50
20171;DHT22;10245;51.344;6.620;2023-02-11T00:43:41;6.70;83.60
20171;DHT22;10245;51.344;6.620;2023-02-11T00:46:04;6.70;83.50
20171;DHT22;10245;51.344;6.620;2023-02-11T00:48:28;6.70;83.60
20171;DHT22;10245;51.344;6.620;2023-02-11T00:50:55;6.80;83.50
20171;DHT22;10245;51.344;6.620;2023-02-11T00:53:19;6.80;83.30
20171;DHT22;10245;51.344;6.620;2023-02-11T00:55:42;6.70;83.30
20171;DHT22;10245;51.344;6.620;2023-02-11T00:58:06;6.80;83.30
20171;DHT22;10245;51.344;6.620;2023-02-11T01:00:29;6.80;83.50
20171;DHT22;10245;51.344;6.620;2023-02-11T01:02:52;6.70;83.60
20171;DHT22;10245;51.344;6.620;2023-02-11T01:05:17;6.60;83.70
20171;DHT22;10245;51.344;6.620;2023-02-11T01:07:43;6.60;83.70
20171;DHT22;10245;51.344;6.620;2023-02-11T01:10:07;6.70;83.70
20171;DHT22;10245;51.344;6.620;2023-02-11T01:12:31;6.60;83.80
20171;DHT22;10245;51.344;6.620;2023-02-11T01:14:57;6.60;83.80
20171;DHT22;10245;51.344;6.620;2023-02-11T01:17:20;6.60;84.00
20171;DHT22;10245;51.344;6.620;2023-02-11T01:19:44;6.60;84.00
20171;DHT22;10245;51.344;6.620;2023-02-11T01:22:07;6.60;83.90
20171;DHT22;10245;51.344;6.620;2023-02-11T01:24:32;6.60;83.90
20171;DHT22;10245;51.344;6.620;2023-02-11T01:26:55;6.60;84.20
20171;DHT22;10245;51.344;6.620;2023-02-11T01:29:19;6.50;84.20
20171;DHT22;10245;51.344;6.620;2023-02-11T01:31:42;6.60;84.20
20171;DHT22;10245;51.344;6.620;2023-02-11T01:34:05;6.50;84.20
20171;DHT22;10245;51.344;6.620;2023-02-11T01:36:30;6.50;84.30
20171;DHT22;10245;51.344;6.620;2023-02-11T01:38:54;6.50;84.40
20171;DHT22;10245;51.344;6.620;2023-02-11T01:41:19;6.50;84.40
20171;DHT22;10245;51.344;6.620;2023-02-11T01:43:47;6.50;84.60
20171;DHT22;10245;51.344;6.620;2023-02-11T01:46:28;6.50;84.60
20171;DHT22;10245;51.344;6.620;2023-02-11T01:48:56;6.50;84.60
20171;DHT22;10245;51.344;6.620;2023-02-11T01:51:25;6.50;84.50
20171;DHT22;10245;51.344;6.620;2023-02-11T01:53:50;6.50;84.60
20171;DHT22;10245;51.344;6.620;2023-02-11T01:56:36;6.50;84.70
20171;DHT22;10245;51.344;6.620;2023-02-11T01:59:23;6.50;84.70
20171;DHT22;10245;51.344;6.620;2023-02-11T02:01:52;6.50;84.70
20171;DHT22;10245;51.344;6.620;2023-02-11T02:04:20;6.40;84.80
20171;DHT22;10245;51.344;6.620;2023-02-11T02:06:54;6.50;84.80
20171;DHT22;10245;51.344;6.620;2023-02-11T02:09:22;6.50;84.80
20171;DHT22;10245;51.344;6.620;2023-02-11T02:11:50;6.40;84.80
20171;DHT22;10245;51.344;6.620;2023-02-11T02:14:13;6.40;84.90
20171;DHT22;10245;51.344;6.620;2023-02-11T02:16:37;6.40;85.10
20171;DHT22;10245;51.344;6.620;2023-02-11T02:19:16;6.40;85.10
20171;DHT22;10245;51.344;6.620;2023-02-11T02:22:25;6.40;85.10
20171;DHT22;10245;51.344;6.620;2023-02-11T02:25:18;6.40;85.20
20171;DHT22;10245;51.344;6.620;2023-02-11T02:27:54;6.30;85.30
20171;DHT22;10245;51.344;6.620;2023-02-11T02:30:41;6.30;85.30
20171;DHT22;10245;51.344;6.620;2023-02-11T02:33:20;6.30;85.30
20171;DHT22;10245;51.344;6.620;2023-02-11T02:35:52;6.30;85.40
20171;DHT22;10245;51.344;6.620;2023-02-11T02:38:29;6.30;85.40
20171;DHT22;10245;51.344;6.620;2023-02-11T02:40:57;6.20;85.40
20171;DHT22;10245;51.344;6.620;2023-02-11T02:43:24;6.30;85.30
20171;DHT22;10245;51.344;6.620;2023-02-11T02:45:48;6.20;85.50
20171;DHT22;10245;51.344;6.620;2023-02-11T02:48:24;6.30;85.60
20171;DHT22;10245;51.344;6.620;2023-02-11T02:50:49;6.30;85.40
20171;DHT22;10245;51.344;6.620;2023-02-11T02:53:23;6.20;85.50
20171;DHT22;10245;51.344;6.620;2023-02-11T02:55:58;6.20;85.50
20171;DHT22;10245;51.344;6.620;2023-02-11T02:58:41;6.20;85.50
20171;DHT22;10245;51.344;6.620;2023-02-11T03:01:25;6.20;85.50
20171;DHT22;10245;51.344;6.620;2023-02-11T03:04:01;6.20;85.50
20171;DHT22;10245;51.344;6.620;2023-02-11T03:06:32;6.10;85.60
20171;DHT22;10245;51.344;6.620;2023-02-11T03:09:02;6.20;85.70
20171;DHT22;10245;51.344;6.620;2023-02-11T03:11:33;6.20;85.70
20171;DHT22;10245;51.344;6.620;2023-02-11T03:14:00;6.20;85.70
20171;DHT22;10245;51.344;6.620;2023-02-11T03:16:26;6.20;85.80
20171;DHT22;10245;51.344;6.620;2023-02-11T03:18:55;6.10;85.90
20171;DHT22;10245;51.344;6.620;2023-02-11T03:21:21;6.20;85.90
20171;DHT22;10245;51.344;6.620;2023-02-11T03:23:49;6.20;85.90
20171;DHT22;10245;51.344;6.620;2023-02-11T03:26:25;6.10;85.90
20171;DHT22;10245;51.344;6.620;2023-02-11T03:28:54;6.20;86.00
20171;DHT22;10245;51.344;6.620;2023-02-11T03:31:27;6.20;86.00
20171;DHT22;10245;51.344;6.620;2023-02-11T03:34:01;6.10;86.00
20171;DHT22;10245;51.344;6.620;2023-02-11T03:36:34;6.10;86.00
20171;DHT22;10245;51.344;6.620;2023-02-11T03:39:02;6.10;86.10
20171;DHT22;10245;51.344;6.620;2023-02-11T03:41:27;6.10;86.10
20171;DHT22;10245;51.344;6.620;2023-02-11T03:43:54;6.10;86.20
20171;DHT22;10245;51.344;6.620;2023-02-11T03:46:23;6.10;86.30
20171;DHT22;10245;51.344;6.620;2023-02-11T03:48:52;6.20;86.30
20171;DHT22;10245;51.344;6.620;2023-02-11T03:51:20;6.20;86.30
20171;DHT22;10245;51.344;6.620;2023-02-11T03:53:46;6.10;86.30
20171;DHT22;10245;51.344;6.620;2023-02-11T03:56:12;6.20;86.30
20171;DHT22;10245;51.344;6.620;2023-02-11T03:58:38;6.20;86.20
20171;DHT22;10245;51.344;6.620;2023-02-11T04:01:01;6.10;86.30
20171;DHT22;10245;51.344;6.620;2023-02-11T04:03:26;6.20;86.40
20171;DHT22;10245;51.344;6.620;2023-02-11T04:05:49;6.10;86.40
20171;DHT22;10245;51.344;6.620;2023-02-11T04:08:14;6.10;86.40
20171;DHT22;10245;51.344;6.620;2023-02-11T04:10:37;6.10;86.60
20171;DHT22;10245;51.344;6.620;2023-02-11T04:13:01;6.10;86.70
20171;DHT22;10245;51.344;6.620;2023-02-11T04:15:24;6.10;86.80
20171;DHT22;10245;51.344;6.620;2023-02-11T04:17:48;6.10;86.90
20171;DHT22;10245;51.344;6.620;2023-02-11T04:20:12;6.00;87.10
20171;DHT22;10245;51.344;6.620;2023-02-11T04:22:35;6.10;87.20
20171;DHT22;10245;51.344;6.620;2023-02-11T04:25:00;6.00;87.50
20171;DHT22;10245;51.344;6.620;2023-02-11T04:27:24;6.00;87.90
20171;DHT22;10245;51.344;6.620;2023-02-11T04:29:47;6.00;88.20
20171;DHT22;10245;51.344;6.620;2023-02-11T04:32:11;6.00;88.40
20171;DHT22;10245;51.344;6.620;2023-02-11T04:34:34;6.00;88.40
20171;DHT22;10245;51.344;6.620;2023-02-11T04:36:57;6.00;88.50
20171;DHT22;10245;51.344;6.620;2023-02-11T04:39:21;6.00;88.40
20171;DHT22;10245;51.344;6.620;2023-02-11T04:41:46;6.00;88.80
20171;DHT22;10245;51.344;6.620;2023-02-11T04:44:09;6.00;88.80
20171;DHT22;10245;51.344;6.620;2023-02-11T04:46:33;5.90;89.10
20171;DHT22;10245;51.344;6.620;2023-02-11T04:48:57;5.90;89.20
20171;DHT22;10245;51.344;6.620;2023-02-11T04:51:20;5.90;89.60
20171;DHT22;10245;51.344;6.620;2023-02-11T04:53:44;5.90;89.90
20171;DHT22;10245;51.344;6.620;2023-02-11T04:56:07;5.80;90.10
20171;DHT22;10245;51.344;6.620;2023-02-11T04:58:32;5.80;90.20
20171;DHT22;10245;51.344;6.620;2023-02-11T05:01:04;5.80;90.20
20171;DHT22;10245;51.344;6.620;2023-02-11T05:03:28;5.80;90.50
20171;DHT22;10245;51.344;6.620;2023-02-11T05:05:52;5.80;90.60
20171;DHT22;10245;51.344;6.620;2023-02-11T05:08:16;5.80;90.80
20171;DHT22;10245;51.344;6.620;2023-02-11T05:10:39;5.80;91.00
20171;DHT22;10245;51.344;6.620;2023-02-11T05:13:03;5.80;91.20
20171;DHT22;10245;51.344;6.620;2023-02-11T05:15:28;5.80;91.50
20171;DHT22;10245;51.344;6.620;2023-02-11T05:17:51;5.70;91.70
20171;DHT22;10245;51.344;6.620;2023-02-11T05:20:15;5.70;91.80
20171;DHT22;10245;51.344;6.620;2023-02-11T05:22:38;5.70;91.90
20171;DHT22;10245;51.344;6.620;2023-02-11T05:25:02;5.70;92.00
20171;DHT22;10245;51.344;6.620;2023-02-11T05:27:25;5.70;92.00
20171;DHT22;10245;51.344;6.620;2023-02-11T05:29:49;5.70;92.00
20171;DHT22;10245;51.344;6.620;2023-02-11T05:32:14;5.70;91.90
20171;DHT22;10245;51.344;6.620;2023-02-11T05:34:37;5.80;91.90
20171;DHT22;10245;51.344;6.620;2023-02-11T05:37:01;5.80;91.70
20171;DHT22;10245;51.344;6.620;2023-02-11T05:39:24;5.80;91.70
20171;DHT22;10245;51.344;6.620;2023-02-11T05:41:47;5.80;91.50
20171;DHT22;10245;51.344;6.620;2023-02-11T05:44:11;5.70;91.60
20171;DHT22;10245;51.344;6.620;2023-02-11T05:46:34;5.80;91.30
20171;DHT22;10245;51.344;6.620;2023-02-11T05:48:59;5.80;91.20
20171;DHT22;10245;51.344;6.620;2023-02-11T05:51:22;5.80;91.10
20171;DHT22;10245;51.344;6.620;2023-02-11T05:53:46;5.90;91.00
20171;DHT22;10245;51.344;6.620;2023-02-11T05:56:09;5.90;90.90
20171;DHT22;10245;51.344;6.620;2023-02-11T05:58:33;5.90;90.70
20171;DHT22;10245;51.344;6.620;2023-02-11T06:00:56;5.90;90.60
20171;DHT22;10245;51.344;6.620;2023-02-11T06:03:19;5.90;90.50
20171;DHT22;10245;51.344;6.620;2023-02-11T06:05:45;5.90;90.40
20171;DHT22;10245;51.344;6.620;2023-02-11T06:08:10;5.90;90.40
20171;DHT22;10245;51.344;6.620;2023-02-11T06:10:37;6.00;90.30
20171;DHT22;10245;51.344;6.620;2023-02-11T06:13:03;6.00;90.10
20171;DHT22;10245;51.344;6.620;2023-02-11T06:15:26;6.00;90.10
20171;DHT22;10245;51.344;6.620;2023-02-11T06:17:50;6.00;90.10
20171;DHT22;10245;51.344;6.620;2023-02-11T06:20:13;6.00;89.90
20171;DHT22;10245;51.344;6.620;2023-02-11T06:22:38;6.00;89.90
20171;DHT22;10245;51.344;6.620;2023-02-11T06:25:01;6.00;89.90
20171;DHT22;10245;51.344;6.620;2023-02-11T06:27:25;6.00;90.00
20171;DHT22;10245;51.344;6.620;2023-02-11T06:29:48;6.00;90.00
20171;DHT22;10245;51.344;6.620;2023-02-11T06:32:13;6.00;90.00
20171;DHT22;10245;51.344;6.620;2023-02-11T06:34:57;6.00;90.00
20171;DHT22;10245;51.344;6.620;2023-02-11T06:37:20;6.00;90.00
20171;DHT22;10245;51.344;6.620;2023-02-11T06:39:45;6.00;89.90
20171;DHT22;10245;51.344;6.620;2023-02-11T06:42:09;6.00;89.90
20171;DHT22;10245;51.344;6.620;2023-02-11T06:44:32;6.00;89.90
20171;DHT22;10245;51.344;6.620;2023-02-11T06:46:55;6.00;90.10
20171;DHT22;10245;51.344;6.620;2023-02-11T06:49:18;6.00;90.10
20171;DHT22;10245;51.344;6.620;2023-02-11T06:51:42;6.00;90.00
20171;DHT22;10245;51.344;6.620;2023-02-11T06:54:05;6.00;90.00
20171;DHT22;10245;51.344;6.620;2023-02-11T06:56:30;6.00;90.10
20171;DHT22;10245;51.344;6.620;2023-02-11T06:58:55;6.00;90.10
20171;DHT22;10245;51.344;6.620;2023-02-11T07:01:19;6.00;90.30
20171;DHT22;10245;51.344;6.620;2023-02-11T07:03:44;6.00;90.20
20171;DHT22;10245;51.344;6.620;2023-02-11T07:06:11;6.00;90.20
20171;DHT22;10245;51.344;6.620;2023-02-11T07:08:37;6.00;90.30
20171;DHT22;10245;51.344;6.620;2023-02-11T07:11:08;6.10;90.10
20171;DHT22;10245;51.344;6.620;2023-02-11T07:13:34;6.00;90.20
20171;DHT22;10245;51.344;6.620;2023-02-11T07:15:57;6.00;90.30
20171;DHT22;10245;51.344;6.620;2023-02-11T07:18:20;6.00;90.30
20171;DHT22;10245;51.344;6.620;2023-02-11T07:20:44;6.10;90.10
20171;DHT22;10245;51.344;6.620;2023-02-11T07:23:07;6.20;90.00
20171;DHT22;10245;51.344;6.620;2023-02-11T07:25:31;6.10;90.20
20171;DHT22;10245;51.344;6.620;2023-02-11T07:27:55;6.20;90.20
20171;DHT22;10245;51.344;6.620;2023-02-11T07:30:20;6.10;90.10
20171;DHT22;10245;51.344;6.620;2023-02-11T07:32:43;6.10;90.20
20171;DHT22;10245;51.344;6.620;2023-02-11T07:35:07;6.10;90.20
20171;DHT22;10245;51.344;6.620;2023-02-11T07:37:32;6.10;90.20
20171;DHT22;10245;51.344;6.620;2023-02-11T07:39:56;6.20;90.20
20171;DHT22;10245;51.344;6.620;2023-02-11T07:42:19;6.10;90.20
20171;DHT22;10245;51.344;6.620;2023-02-11T07:44:42;6.10;90.30
20171;DHT22;10245;51.344;6.620;2023-02-11T07:47:07;6.10;90.30
20171;DHT22;10245;51.344;6.620;2023-02-11T07:49:31;6.10;90.30
20171;DHT22;10245;51.344;6.620;2023-02-11T07:51:55;6.10;90.30
20171;DHT22;10245;51.344;6.620;2023-02-11T07:54:18;6.20;90.30
20171;DHT22;10245;51.344;6.620;2023-02-11T07:56:42;6.20;90.40
20171;DHT22;10245;51.344;6.620;2023-02-11T07:59:05;6.20;90.40
20171;DHT22;10245;51.344;6.620;2023-02-11T08:01:30;6.20;90.40
20171;DHT22;10245;51.344;6.620;2023-02-11T08:03:56;6.20;90.30
20171;DHT22;10245;51.344;6.620;2023-02-11T08:06:21;6.20;90.40
20171;DHT22;10245;51.344;6.620;2023-02-11T08:08:46;6.30;90.30
20171;DHT22;10245;51.344;6.620;2023-02-11T08:11:11;6.30;90.30
20171;DHT22;10245;51.344;6.620;2023-02-11T08:13:36;6.30;90.30
20171;DHT22;10245;51.344;6.620;2023-02-11T08:16:00;6.30;90.30
20171;DHT22;10245;51.344;6.620;2023-02-11T08:18:24;6.30;90.20
20171;DHT22;10245;51.344;6.620;2023-02-11T08:20:48;6.30;90.20
20171;DHT22;10245;51.344;6.620;2023-02-11T08:23:12;6.30;90.30
20171;DHT22;10245;51.344;6.620;2023-02-11T08:25:35;6.30;90.30
20171;DHT22;10245;51.344;6.620;2023-02-11T08:27:59;6.30;90.10
20171;DHT22;10245;51.344;6.620;2023-02-11T08:30:22;6.30;90.30
20171;DHT22;10245;51.344;6.620;2023-02-11T08:32:48;6.40;90.20
20171;DHT22;10245;51.344;6.620;2023-02-11T08:35:11;6.40;90.10
20171;DHT22;10245;51.344;6.620;2023-02-11T08:37:36;6.40;90.20
20171;DHT22;10245;51.344;6.620;2023-02-11T08:39:59;6.40;90.10
20171;DHT22;10245;51.344;6.620;2023-02-11T08:42:22;6.40;90.10
20171;DHT22;10245;51.344;6.620;2023-02-11T08:44:46;6.50;90.10
20171;DHT22;10245;51.344;6.620;2023-02-11T08:47:09;6.50;90.00
20171;DHT22;10245;51.344;6.620;2023-02-11T08:49:32;6.50;90.10
20171;DHT22;10245;51.344;6.620;2023-02-11T08:51:56;6.50;90.00
20171;DHT22;10245;51.344;6.620;2023-02-11T08:54:25;6.50;89.90
20171;DHT22;10245;51.344;6.620;2023-02-11T08:56:50;6.50;89.90
20171;DHT22;10245;51.344;6.620;2023-02-11T08:59:13;6.50;89.80
20171;DHT22;10245;51.344;6.620;2023-02-11T09:01:38;6.60;89.90
20171;DHT22;10245;51.344;6.620;2023-02-11T09:04:01;6.70;89.80
20171;DHT22;10245;51.344;6.620;2023-02-11T09:06:25;6.60;89.70
20171;DHT22;10245;51.344;6.620;2023-02-11T09:08:51;6.60;89.70
20171;DHT22;10245;51.344;6.620;2023-02-11T09:11:18;6.70;89.60
20171;DHT22;10245;51.344;6.620;2023-02-11T09:13:44;6.80;89.70
20171;DHT22;10245;51.344;6.620;2023-02-11T09:16:12;6.70;89.30
20171;DHT22;10245;51.344;6.620;2023-02-11T09:18:38;6.80;89.60
20171;DHT22;10245;51.344;6.620;2023-02-11T09:21:02;6.80;89.30
20171;DHT22;10245;51.344;6.620;2023-02-11T09:23:26;6.80;89.40
20171;DHT22;10245;51.344;6.620;2023-02-11T09:25:49;6.80;89.50
20171;DHT22;10245;51.344;6.620;2023-02-11T09:28:14;6.80;89.30
20171;DHT22;10245;51.344;6.620;2023-02-11T09:30:38;6.90;89.30
20171;DHT22;10245;51.344;6.620;2023-02-11T09:33:02;6.90;89.20
20171;DHT22;10245;51.344;6.620;2023-02-11T09:35:25;6.80;89.40
20171;DHT22;10245;51.344;6.620;2023-02-11T09:37:49;6.90;89.40
20171;DHT22;10245;51.344;6.620;2023-02-11T09:40:13;6.90;89.30
20171;DHT22;10245;51.344;6.620;2023-02-11T09:42:45;7.00;89.10
20171;DHT22;10245;51.344;6.620;2023-02-11T09:45:14;7.00;89.20
20171;DHT22;10245;51.344;6.620;2023-02-11T09:47:46;7.00;89.00
20171;DHT22;10245;51.344;6.620;2023-02-11T09:50:13;7.00;89.10
20171;DHT22;10245;51.344;6.620;2023-02-11T09:52:43;7.00;88.90
20171;DHT22;10245;51.344;6.620;2023-02-11T09:55:18;7.00;89.10
20171;DHT22;10245;51.344;6.620;2023-02-11T09:57:43;7.00;89.10
20171;DHT22;10245;51.344;6.620;2023-02-11T10:00:19;7.00;89.20
20171;DHT22;10245;51.344;6.620;2023-02-11T10:02:58;7.10;89.00
20171;DHT22;10245;51.344;6.620;2023-02-11T10:05:45;7.00;89.00
20171;DHT22;10245;51.344;6.620;2023-02-11T10:08:19;7.00;89.00
20171;DHT22;10245;51.344;6.620;2023-02-11T10:10:51;7.00;89.20
20171;DHT22;10245;51.344;6.620;2023-02-11T10:13:32;7.00;89.10
20171;DHT22;10245;51.344;6.620;2023-02-11T10:16:17;7.00;89.00
20171;DHT22;10245;51.344;6.620;2023-02-11T10:19:07;7.00;89.20
20171;DHT22;10245;51.344;6.620;2023-02-11T10:21:39;7.10;89.20
20171;DHT22;10245;51.344;6.620;2023-02-11T10:24:13;7.10;89.00
20171;DHT22;10245;51.344;6.620;2023-02-11T10:26:38;7.10;89.10
20171;DHT22;10245;51.344;6.620;2023-02-11T10:29:10;7.10;89.00
20171;DHT22;10245;51.344;6.620;2023-02-11T10:31:41;7.20;89.10
20171;DHT22;10245;51.344;6.620;2023-02-11T10:34:09;7.20;89.10
20171;DHT22;10245;51.344;6.620;2023-02-11T10:36:38;7.10;89.20
20171;DHT22;10245;51.344;6.620;2023-02-11T10:39:11;7.10;89.10
20171;DHT22;10245;51.344;6.620;2023-02-11T10:41:38;7.10;89.20
20171;DHT22;10245;51.344;6.620;2023-02-11T10:44:05;7.20;89.10
20171;DHT22;10245;51.344;6.620;2023-02-11T10:46:32;7.20;89.10
20171;DHT22;10245;51.344;6.620;2023-02-11T10:48:59;7.20;89.20
20171;DHT22;10245;51.344;6.620;2023-02-11T10:51:25;7.20;89.20
20171;DHT22;10245;51.344;6.620;2023-02-11T10:53:52;7.20;89.00
20171;DHT22;10245;51.344;6.620;2023-02-11T10:56:36;7.30;89.20
20171;DHT22;10245;51.344;6.620;2023-02-11T10:59:04;7.30;89.20
20171;DHT22;10245;51.344;6.620;2023-02-11T11:01:40;7.40;89.00
20171;DHT22;10245;51.344;6.620;2023-02-11T11:04:32;7.30;89.00
20171;DHT22;10245;51.344;6.620;2023-02-11T11:07:08;7.30;89.20
20171;DHT22;10245;51.344;6.620;2023-02-11T11:09:43;7.30;89.10
20171;DHT22;10245;51.344;6.620;2023-02-11T11:12:23;7.40;89.00
20171;DHT22;10245;51.344;6.620;2023-02-11T11:14:53;7.40;89.10
20171;DHT22;10245;51.344;6.620;2023-02-11T11:17:18;7.40;89.20
20171;DHT22;10245;51.344;6.620;2023-02-11T11:19:42;7.40;89.00
20171;DHT22;10245;51.344;6.620;2023-02-11T11:22:06;7.50;88.90
20171;DHT22;10245;51.344;6.620;2023-02-11T11:24:32;7.40;89.00
20171;DHT22;10245;51.344;6.620;2023-02-11T11:27:03;7.50;89.10
20171;DHT22;10245;51.344;6.620;2023-02-11T11:29:31;7.50;88.90
20171;DHT22;10245;51.344;6.620;2023-02-11T11:31:57;7.50;89.00
20171;DHT22;10245;51.344;6.620;2023-02-11T11:34:27;7.50;89.00
20171;DHT22;10245;51.344;6.620;2023-02-11T11:36:54;7.50;88.80
20171;DHT22;10245;51.344;6.620;2023-02-11T11:39:22;7.50;88.80
20171;DHT22;10245;51.344;6.620;2023-02-11T11:41:53;7.60;88.70
20171;DHT22;10245;51.344;6.620;2023-02-11T11:44:24;7.60;88.60
20171;DHT22;10245;51.344;6.620;2023-02-11T11:46:54;7.70;88.50
20171;DHT22;10245;51.344;6.620;2023-02-11T11:49:48;7.70;88.60
20171;DHT22;10245;51.344;6.620;2023-02-11T11:52:23;7.80;88.40
20171;DHT22;10245;51.344;6.620;2023-02-11T11:54:59;7.60;88.80
20171;DHT22;10245;51.344;6.620;2023-02-11T11:57:26;7.70;88.60
20171;DHT22;10245;51.344;6.620;2023-02-11T11:59:51;7.80;88.70
20171;DHT22;10245;51.344;6.620;2023-02-11T12:02:30;7.80;88.30
20171;DHT22;10245;51.344;6.620;2023-02-11T12:05:07;7.80;88.30
20171;DHT22;10245;51.344;6.620;2023-02-11T12:07:57;7.90;88.50
20171;DHT22;10245;51.344;6.620;2023-02-11T12:10:36;7.80;88.40
20171;DHT22;10245;51.344;6.620;2023-02-11T12:13:13;7.80;88.30
20171;DHT22;10245;51.344;6.620;2023-02-11T12:15:48;7.90;88.20
20171;DHT22;10245;51.344;6.620;2023-02-11T12:18:29;8.00;88.10
20171;DHT22;10245;51.344;6.620;2023-02-11T12:21:11;8.00;88.20
20171;DHT22;10245;51.344;6.620;2023-02-11T12:24:05;8.00;88.10
20171;DHT22;10245;51.344;6.620;2023-02-11T12:26:43;8.00;87.80
20171;DHT22;10245;51.344;6.620;2023-02-11T12:29:17;8.00;87.90
20171;DHT22;10245;51.344;6.620;2023-02-11T12:31:58;8.20;87.70
20171;DHT22;10245;51.344;6.620;2023-02-11T12:35:01;8.00;87.50
20171;DHT22;10245;51.344;6.620;2023-02-11T12:37:44;8.20;87.70
20171;DHT22;10245;51.344;6.620;2023-02-11T12:40:19;8.10;87.80
20171;DHT22;10245;51.344;6.620;2023-02-11T12:42:54;8.10;87.50
20171;DHT22;10245;51.344;6.620;2023-02-11T12:45:59;8.30;87.50
20171;DHT22;10245;51.344;6.620;2023-02-11T12:48:42;8.30;87.40
20171;DHT22;10245;51.344;6.620;2023-02-11T12:51:31;8.30;87.20
20171;DHT22;10245;51.344;6.620;2023-02-11T12:54:14;8.40;87.40
20171;DHT22;10245;51.344;6.620;2023-02-11T12:56:47;8.40;87.00
20171;DHT22;10245;51.344;6.620;2023-02-11T12:59:19;8.30;87.10
20171;DHT22;10245;51.344;6.620;2023-02-11T13:01:51;8.40;87.30
20171;DHT22;10245;51.344;6.620;2023-02-11T13:04:18;8.40;86.80
20171;DHT22;10245;51.344;6.620;2023-02-11T13:06:45;8.30;87.20
20171;DHT22;10245;51.344;6.620;2023-02-11T13:09:17;8.30;87.30
20171;DHT22;10245;51.344;6.620;2023-02-11T13:11:47;8.30;87.50
20171;DHT22;10245;51.344;6.620;2023-02-11T13:14:16;8.30;87.20
20171;DHT22;10245;51.344;6.620;2023-02-11T13:16:46;8.50;87.20
20171;DHT22;10245;51.344;6.620;2023-02-11T13:19:17;8.50;86.90
20171;DHT22;10245;51.344;6.620;2023-02-11T13:21:59;8.50;86.90
20171;DHT22;10245;51.344;6.620;2023-02-11T13:24:30;8.50;86.60
20171;DHT22;10245;51.344;6.620;2023-02-11T13:27:09;8.50;86.70
20171;DHT22;10245;51.344;6.620;2023-02-11T13:30:00;8.60;86.70
20171;DHT22;10245;51.344;6.620;2023-02-11T13:33:05;8.50;86.70
20171;DHT22;10245;51.344;6.620;2023-02-11T13:35:42;8.60;86.80
20171;DHT22;10245;51.344;6.620;2023-02-11T13:38:17;8.60;86.60
20171;DHT22;10245;51.344;6.620;2023-02-11T13:40:43;8.60;86.60
20171;DHT22;10245;51.344;6.620;2023-02-11T13:43:21;8.60;86.60
20171;DHT22;10245;51.344;6.620;2023-02-11T13:45:47;8.70;86.40
20171;DHT22;10245;51.344;6.620;2023-02-11T13:48:16;8.70;86.60
20171;DHT22;10245;51.344;6.620;2023-02-11T13:50:46;8.60;86.70
20171;DHT22;10245;51.344;6.620;2023-02-11T13:53:11;8.70;86.60
20171;DHT22;10245;51.344;6.620;2023-02-11T13:55:37;8.70;86.40
20171;DHT22;10245;51.344;6.620;2023-02-11T13:58:32;8.60;86.60
20171;DHT22;10245;51.344;6.620;2023-02-11T14:01:00;8.60;86.70
20171;DHT22;10245;51.344;6.620;2023-02-11T14:03:29;8.60;86.60
20171;DHT22;10245;51.344;6.620;2023-02-11T14:06:15;8.60;86.80
20171;DHT22;10245;51.344;6.620;2023-02-11T14:09:01;8.60;86.50
20171;DHT22;10245;51.344;6.620;2023-02-11T14:11:47;8.70;86.60
20171;DHT22;10245;51.344;6.620;2023-02-11T14:14:30;8.80;87.00
20171;DHT22;10245;51.344;6.620;2023-02-11T14:17:30;8.70;86.50
20171;DHT22;10245;51.344;6.620;2023-02-11T14:19:54;8.70;86.80
20171;DHT22;10245;51.344;6.620;2023-02-11T14:22:22;8.80;86.40
20171;DHT22;10245;51.344;6.620;2023-02-11T14:24:53;9.00;86.20
20171;DHT22;10245;51.344;6.620;2023-02-11T14:27:30;9.00;85.90
20171;DHT22;10245;51.344;6.620;2023-02-11T14:30:09;8.90;86.10
20171;DHT22;10245;51.344;6.620;2023-02-11T14:32:50;9.00;86.10
20171;DHT22;10245;51.344;6.620;2023-02-11T14:35:25;9.00;86.20
20171;DHT22;10245;51.344;6.620;2023-02-11T14:37:56;9.00;85.80
20171;DHT22;10245;51.344;6.620;2023-02-11T14:40:27;9.10;85.80
20171;DHT22;10245;51.344;6.620;2023-02-11T14:42:54;9.10;85.40
20171;DHT22;10245;51.344;6.620;2023-02-11T14:45:23;9.00;85.60
20171;DHT22;10245;51.344;6.620;2023-02-11T14:47:50;9.10;85.70
20171;DHT22;10245;51.344;6.620;2023-02-11T14:50:20;9.10;85.50
20171;DHT22;10245;51.344;6.620;2023-02-11T14:52:47;9.00;85.90
20171;DHT22;10245;51.344;6.620;2023-02-11T14:55:17;9.10;85.70
20171;DHT22;10245;51.344;6.620;2023-02-11T14:57:47;9.10;85.60
20171;DHT22;10245;51.344;6.620;2023-02-11T15:00:17;9.10;85.60
20171;DHT22;10245;51.344;6.620;2023-02-11T15:02:46;9.00;85.90
20171;DHT22;10245;51.344;6.620;2023-02-11T15:05:14;9.00;85.90
20171;DHT22;10245;51.344;6.620;2023-02-11T15:07:43;9.00;85.80
20171;DHT22;10245;51.344;6.620;2023-02-11T15:10:16;9.00;85.70
20171;DHT22;10245;51.344;6.620;2023-02-11T15:12:44;9.00;85.70
20171;DHT22;10245;51.344;6.620;2023-02-11T15:15:11;9.00;85.90
20171;DHT22;10245;51.344;6.620;2023-02-11T15:17:36;9.00;85.80
20171;DHT22;10245;51.344;6.620;2023-02-11T15:20:01;9.00;86.00
20171;DHT22;10245;51.344;6.620;2023-02-11T15:22:26;9.00;85.70
20171;DHT22;10245;51.344;6.620;2023-02-11T15:24:59;9.00;85.70
20171;DHT22;10245;51.344;6.620;2023-02-11T15:27:24;9.10;85.80
20171;DHT22;10245;51.344;6.620;2023-02-11T15:29:49;9.10;85.80
20171;DHT22;10245;51.344;6.620;2023-02-11T15:32:14;9.00;85.70
20171;DHT22;10245;51.344;6.620;2023-02-11T15:34:39;9.00;86.00
20171;DHT22;10245;51.344;6.620;2023-02-11T15:37:04;9.00;86.00
20171;DHT22;10245;51.344;6.620;2023-02-11T15:39:30;9.00;85.90
20171;DHT22;10245;51.344;6.620;2023-02-11T15:42:18;9.00;85.70
20171;DHT22;10245;51.344;6.620;2023-02-11T15:44:44;9.00;85.90
20171;DHT22;10245;51.344;6.620;2023-02-11T15:47:18;9.00;85.90
20171;DHT22;10245;51.344;6.620;2023-02-11T15:49:44;9.00;85.70
20171;DHT22;10245;51.344;6.620;2023-02-11T15:52:11;9.00;85.80
20171;DHT22;10245;51.344;6.620;2023-02-11T15:54:35;9.00;85.60